Time;durP1;ratioP1;P1;durP2;ratioP2;P2;SDS_P1;SDS_P2;PMS_P1;PMS_P2;Temp;Humidity;BMP_temperature;BMP_pressure;BME280_temperature;BME280_humidity;BME280_pressure;Samples;Min_cycle;Max_cycle;Signal;HPM_P1;HPM_P2
2022/07/06 00:01:17;;;;;;;4.03;2.27;;;15.60;99.90;;;;;;4990187;28;20200;-60
2022/07/06 00:03:42;;;;;;;6.60;2.70;;;15.60;99.90;;;;;;4990165;28;20455;-61
2022/07/06 00:06:08;;;;;;;3.70;2.43;;;15.50;99.90;;;;;;4984664;28;20173;-61
2022/07/06 00:08:33;;;;;;;13.93;2.80;;;15.40;99.90;;;;;;4983867;28;20172;-60
2022/07/06 00:11:02;;;;;;;3.60;2.90;;;15.40;99.90;;;;;;4987870;28;20177;-60
2022/07/06 00:13:28;;;;;;;3.53;2.67;;;15.30;99.90;;;;;;4981408;28;20209;-61
2022/07/06 00:15:54;;;;;;;6.47;2.70;;;15.30;99.90;;;;;;4989706;28;20420;-60
2022/07/06 00:18:20;;;;;;;3.63;2.93;;;15.30;99.90;;;;;;4986652;28;20334;-60
2022/07/06 00:20:48;;;;;;;2.80;2.23;;;15.20;99.90;;;;;;4986401;28;20245;-60
2022/07/06 00:23:14;;;;;;;4.67;2.90;;;15.20;99.90;;;;;;4989784;28;20197;-61
2022/07/06 00:25:40;;;;;;;2.70;2.50;;;15.10;99.90;;;;;;4987617;28;20457;-60
2022/07/06 00:28:06;;;;;;;3.07;2.77;;;15.10;99.90;;;;;;4986909;28;20484;-61
2022/07/06 00:30:31;;;;;;;2.77;2.57;;;15.10;99.90;;;;;;4985062;28;20173;-59
2022/07/06 00:32:58;;;;;;;4.80;2.67;;;15.10;99.90;;;;;;4988824;28;20296;-60
2022/07/06 00:35:25;;;;;;;3.37;3.07;;;15.10;99.90;;;;;;4985926;28;20235;-60
2022/07/06 00:37:50;;;;;;;5.30;3.30;;;15.10;99.90;;;;;;4989096;28;20416;-60
2022/07/06 00:40:17;;;;;;;4.90;2.77;;;15.10;99.90;;;;;;4990599;28;20516;-60
2022/07/06 00:42:49;;;;;;;8.10;3.20;;;15.00;99.90;;;;;;4983386;28;20212;-59
2022/07/06 00:45:17;;;;;;;2.93;2.70;;;15.00;99.90;;;;;;4985799;28;20425;-60
2022/07/06 00:47:43;;;;;;;4.40;2.90;;;15.00;99.90;;;;;;4981538;28;20482;-61
2022/07/06 00:50:14;;;;;;;3.37;3.07;;;14.90;99.90;;;;;;4990352;28;20420;-60
2022/07/06 00:52:47;;;;;;;3.80;2.90;;;14.90;99.90;;;;;;4986756;28;20435;-61
2022/07/06 00:55:15;;;;;;;4.20;2.80;;;14.90;99.90;;;;;;4984342;28;20909;-60
2022/07/06 00:57:41;;;;;;;9.67;3.37;;;14.80;99.90;;;;;;4986262;28;20429;-60
2022/07/06 01:00:09;;;;;;;3.60;2.87;;;14.80;99.90;;;;;;4988931;28;20416;-60
2022/07/06 01:02:36;;;;;;;5.67;3.10;;;14.80;99.90;;;;;;4988791;28;20448;-59
2022/07/06 01:05:04;;;;;;;3.33;3.03;;;14.70;99.90;;;;;;4982933;28;20428;-60
2022/07/06 01:07:30;;;;;;;6.60;3.07;;;14.60;99.90;;;;;;4982834;28;20438;-60
2022/07/06 01:09:56;;;;;;;3.43;3.10;;;14.60;99.90;;;;;;4987488;28;20441;-60
2022/07/06 01:12:22;;;;;;;3.23;2.90;;;14.60;99.90;;;;;;4981101;28;20534;-60
2022/07/06 01:14:49;;;;;;;7.20;3.10;;;14.60;99.90;;;;;;4978485;28;20518;-60
2022/07/06 01:17:15;;;;;;;4.67;3.40;;;14.60;99.90;;;;;;4983763;28;20575;-60
2022/07/06 01:19:41;;;;;;;9.50;3.40;;;14.50;99.90;;;;;;4984927;28;20436;-60
2022/07/06 01:22:07;;;;;;;3.40;3.10;;;14.50;99.90;;;;;;4983098;28;20503;-58
2022/07/06 01:24:37;;;;;;;7.17;3.33;;;14.50;99.90;;;;;;4986750;28;20650;-60
2022/07/06 01:27:04;;;;;;;3.03;2.83;;;14.50;99.90;;;;;;4986477;28;20468;-61
2022/07/06 01:29:30;;;;;;;4.67;3.20;;;14.50;99.90;;;;;;4983978;28;21051;-60
2022/07/06 01:31:56;;;;;;;5.07;3.50;;;14.50;99.90;;;;;;4986134;28;20531;-60
2022/07/06 01:34:21;;;;;;;6.83;3.20;;;14.50;99.90;;;;;;4987380;28;20536;-61
2022/07/06 01:36:47;;;;;;;8.07;3.30;;;14.40;99.90;;;;;;4986918;28;20187;-59
2022/07/06 01:39:13;;;;;;;4.53;3.50;;;14.40;99.90;;;;;;4985560;28;20192;-60
2022/07/06 01:41:39;;;;;;;4.13;3.40;;;14.30;99.90;;;;;;4984467;28;20281;-60
2022/07/06 01:44:05;;;;;;;5.17;3.53;;;14.30;99.90;;;;;;4984427;28;20456;-60
2022/07/06 01:46:31;;;;;;;6.93;2.73;;;14.30;99.90;;;;;;4987740;28;20671;-60
2022/07/06 01:48:57;;;;;;;3.93;3.60;;;14.20;99.90;;;;;;4987495;28;20952;-61
2022/07/06 01:51:24;;;;;;;5.90;3.00;;;14.20;99.90;;;;;;4979758;28;20428;-60
2022/07/06 01:53:50;;;;;;;6.00;3.57;;;14.10;99.90;;;;;;4986736;28;20192;-60
2022/07/06 01:56:17;;;;;;;11.13;3.87;;;14.00;99.90;;;;;;4981008;28;20428;-60
2022/07/06 01:58:43;;;;;;;3.93;3.50;;;14.00;99.90;;;;;;4984971;28;20519;-60
2022/07/06 02:01:13;;;;;;;5.50;3.70;;;13.90;99.90;;;;;;4980592;28;20555;-60
2022/07/06 02:03:39;;;;;;;3.77;3.47;;;13.90;99.90;;;;;;4987446;28;20296;-60
2022/07/06 02:06:06;;;;;;;6.53;3.63;;;13.80;99.90;;;;;;4988195;28;20515;-60
2022/07/06 02:08:35;;;;;;;3.90;3.40;;;13.80;99.90;;;;;;4975233;28;20233;-60
2022/07/06 02:11:01;;;;;;;4.63;3.47;;;13.80;99.90;;;;;;4975560;28;20460;-60
2022/07/06 02:13:27;;;;;;;7.10;3.90;;;13.80;99.90;;;;;;4987289;28;20448;-60
2022/07/06 02:15:53;;;;;;;4.67;3.23;;;13.70;99.90;;;;;;4988397;28;20890;-60
2022/07/06 02:18:18;;;;;;;4.00;3.60;;;13.70;99.90;;;;;;4978358;28;20549;-60
2022/07/06 02:20:44;;;;;;;8.83;4.00;;;13.70;99.90;;;;;;4985618;28;20542;-60
2022/07/06 02:23:10;;;;;;;4.17;3.70;;;13.70;99.90;;;;;;4976776;28;20725;-60
2022/07/06 02:25:35;;;;;;;4.03;3.73;;;13.60;99.90;;;;;;4983159;28;20181;-60
2022/07/06 02:28:01;;;;;;;7.30;3.50;;;13.70;99.90;;;;;;4986199;28;20784;-60
2022/07/06 02:30:26;;;;;;;4.33;3.53;;;13.60;99.90;;;;;;4977749;28;20259;-60
2022/07/06 02:32:52;;;;;;;5.40;4.20;;;13.60;99.90;;;;;;4979445;28;20201;-60
2022/07/06 02:35:17;;;;;;;9.80;3.70;;;13.60;99.90;;;;;;4982706;28;20185;-60
2022/07/06 02:37:43;;;;;;;3.90;3.60;;;13.60;99.90;;;;;;4985279;28;20435;-60
2022/07/06 02:40:09;;;;;;;4.73;3.23;;;13.60;99.90;;;;;;4984202;28;20188;-60
2022/07/06 02:42:35;;;;;;;3.80;3.50;;;13.50;99.90;;;;;;4985149;28;20235;-60
2022/07/06 02:45:01;;;;;;;4.63;3.53;;;13.50;99.90;;;;;;4986031;28;20603;-60
2022/07/06 02:47:27;;;;;;;3.93;3.27;;;13.50;99.90;;;;;;4986135;28;20437;-60
2022/07/06 02:49:53;;;;;;;4.50;3.73;;;13.50;99.90;;;;;;4982614;28;20921;-61
2022/07/06 02:52:19;;;;;;;3.90;3.60;;;13.40;99.90;;;;;;4989227;28;20182;-60
2022/07/06 02:54:45;;;;;;;3.60;3.30;;;13.40;99.90;;;;;;4987751;28;20586;-61
2022/07/06 02:57:10;;;;;;;5.10;3.50;;;13.40;99.90;;;;;;4989155;28;20519;-60
2022/07/06 02:59:36;;;;;;;3.90;3.60;;;13.40;99.90;;;;;;4992878;28;20181;-60
2022/07/06 03:02:04;;;;;;;3.87;3.47;;;13.30;99.90;;;;;;4989735;28;20235;-62
2022/07/06 03:04:30;;;;;;;3.67;3.37;;;13.30;99.90;;;;;;4990235;28;20447;-60
2022/07/06 03:06:55;;;;;;;4.70;3.80;;;13.30;99.90;;;;;;4979851;28;20506;-60
2022/07/06 03:09:21;;;;;;;4.13;3.70;;;13.20;99.90;;;;;;4990402;28;20184;-60
2022/07/06 03:11:47;;;;;;;4.30;3.40;;;13.20;99.90;;;;;;4985120;28;20646;-59
2022/07/06 03:14:12;;;;;;;4.30;3.90;;;13.20;99.90;;;;;;4988887;28;20215;-62
2022/07/06 03:16:38;;;;;;;5.60;3.90;;;13.20;99.90;;;;;;4990950;28;20259;-60
2022/07/06 03:19:04;;;;;;;3.53;3.23;;;13.20;99.90;;;;;;4990628;28;20189;-61
2022/07/06 03:21:29;;;;;;;4.90;4.20;;;13.20;99.90;;;;;;4987307;28;20707;-60
2022/07/06 03:23:55;;;;;;;7.00;3.83;;;13.10;99.90;;;;;;4989489;28;20580;-60
2022/07/06 03:26:21;;;;;;;8.83;4.80;;;13.10;99.90;;;;;;4985793;28;20205;-60
2022/07/06 03:28:46;;;;;;;5.00;4.07;;;13.10;99.90;;;;;;4991061;28;20753;-60
2022/07/06 03:31:12;;;;;;;4.40;3.70;;;13.10;99.90;;;;;;4988037;28;20203;-60
2022/07/06 03:33:38;;;;;;;12.43;3.97;;;13.10;99.90;;;;;;4991049;28;20201;-60
2022/07/06 03:36:04;;;;;;;4.17;3.80;;;13.10;99.90;;;;;;4983391;28;20189;-60
2022/07/06 03:38:30;;;;;;;5.20;3.80;;;13.10;99.90;;;;;;4991194;28;20177;-61
2022/07/06 03:40:56;;;;;;;9.23;3.80;;;13.00;99.90;;;;;;4987457;28;20463;-60
2022/07/06 03:43:22;;;;;;;6.43;4.23;;;13.00;99.90;;;;;;4990306;28;20204;-60
2022/07/06 03:45:47;;;;;;;11.73;4.30;;;13.00;99.90;;;;;;4990524;28;20193;-60
2022/07/06 03:48:13;;;;;;;4.20;3.80;;;13.00;99.90;;;;;;4976362;28;20264;-61
2022/07/06 03:50:38;;;;;;;5.30;4.00;;;13.00;99.90;;;;;;4985945;28;20173;-60
2022/07/06 03:53:04;;;;;;;5.53;3.90;;;13.00;99.90;;;;;;4973369;28;20217;-57
2022/07/06 03:55:30;;;;;;;5.07;3.70;;;13.00;99.90;;;;;;4974354;28;20189;-58
2022/07/06 03:57:55;;;;;;;4.17;3.77;;;13.00;99.90;;;;;;4979872;28;20685;-57
2022/07/06 04:00:24;;;;;;;4.87;4.37;;;12.90;99.90;;;;;;4973224;28;20193;-59
2022/07/06 04:02:52;;;;;;;4.67;4.27;;;12.90;99.90;;;;;;4977952;28;20209;-59
2022/07/06 04:05:21;;;;;;;7.60;4.30;;;12.90;99.90;;;;;;4979923;28;20439;-59
2022/07/06 04:07:48;;;;;;;6.00;3.90;;;12.90;99.90;;;;;;4982095;28;20425;-59
2022/07/06 04:10:14;;;;;;;5.30;4.43;;;12.90;99.90;;;;;;4983613;28;20456;-60
2022/07/06 04:12:43;;;;;;;8.57;4.80;;;13.00;99.90;;;;;;4986480;28;20444;-58
2022/07/06 04:15:10;;;;;;;4.67;4.27;;;13.00;99.90;;;;;;4979504;28;20802;-58
2022/07/06 04:17:51;;;;;;;5.40;4.00;;;13.00;99.90;;;;;;4982164;28;20440;-58
2022/07/06 04:20:17;;;;;;;9.13;5.07;;;13.00;99.90;;;;;;4981440;28;20462;-60
2022/07/06 04:22:43;;;;;;;6.43;5.17;;;13.00;99.90;;;;;;4983024;28;20464;-59
2022/07/06 04:25:09;;;;;;;6.20;5.33;;;13.00;99.90;;;;;;4974337;28;20455;-61
2022/07/06 04:27:35;;;;;;;6.17;5.40;;;13.00;99.90;;;;;;4985838;28;20204;-61
2022/07/06 04:30:02;;;;;;;9.50;6.03;;;13.00;99.90;;;;;;4989490;28;20938;-60
2022/07/06 04:32:28;;;;;;;6.00;5.43;;;13.00;99.90;;;;;;4982156;28;20468;-60
2022/07/06 04:34:53;;;;;;;7.30;4.93;;;13.00;99.90;;;;;;4981065;28;20444;-60
2022/07/06 04:37:19;;;;;;;6.20;5.40;;;13.00;99.90;;;;;;4987158;28;20181;-61
2022/07/06 04:39:45;;;;;;;8.53;5.70;;;13.00;99.90;;;;;;4980581;28;20177;-61
2022/07/06 04:42:11;;;;;;;5.87;4.80;;;13.10;99.90;;;;;;4985935;28;20716;-60
2022/07/06 04:44:36;;;;;;;7.57;5.37;;;13.10;99.90;;;;;;4982759;28;20198;-61
2022/07/06 04:47:02;;;;;;;11.80;5.33;;;13.10;99.90;;;;;;4981393;28;20174;-60
2022/07/06 04:49:28;;;;;;;5.47;4.97;;;13.20;99.90;;;;;;4987502;28;20713;-60
2022/07/06 04:51:53;;;;;;;6.97;6.27;;;13.30;99.90;;;;;;4985712;28;20208;-60
2022/07/06 04:54:19;;;;;;;7.20;6.30;;;13.40;99.90;;;;;;4976398;28;20205;-61
2022/07/06 04:56:46;;;;;;;6.60;6.00;;;13.50;99.90;;;;;;4986148;28;20208;-60
2022/07/06 04:59:12;;;;;;;9.87;7.80;;;13.60;99.90;;;;;;4990501;28;20201;-61
2022/07/06 05:01:38;;;;;;;10.20;7.50;;;13.70;99.90;;;;;;4985742;28;21262;-59
2022/07/06 05:04:03;;;;;;;9.33;5.90;;;13.80;99.90;;;;;;4983081;28;20228;-59
2022/07/06 05:06:29;;;;;;;7.60;5.40;;;13.90;99.90;;;;;;4981084;28;20249;-60
2022/07/06 05:08:55;;;;;;;8.30;5.80;;;13.90;99.90;;;;;;4986244;28;20480;-60
2022/07/06 05:11:20;;;;;;;8.53;5.40;;;14.00;99.90;;;;;;4984067;28;20181;-61
2022/07/06 05:13:46;;;;;;;9.20;5.43;;;14.10;99.90;;;;;;4986631;28;20259;-61
2022/07/06 05:16:12;;;;;;;7.20;4.67;;;14.20;99.90;;;;;;4983967;28;20185;-59
2022/07/06 05:18:37;;;;;;;7.50;5.37;;;14.30;99.90;;;;;;4981409;28;20612;-60
2022/07/06 05:21:03;;;;;;;6.03;5.43;;;14.40;99.90;;;;;;4986779;28;20808;-59
2022/07/06 05:23:29;;;;;;;6.10;5.33;;;14.50;99.90;;;;;;4988440;28;20228;-60
2022/07/06 05:25:54;;;;;;;17.83;6.07;;;14.60;99.90;;;;;;4985380;28;20575;-60
2022/07/06 05:28:20;;;;;;;8.30;5.13;;;14.70;99.90;;;;;;4989629;28;20199;-60
2022/07/06 05:30:46;;;;;;;6.37;4.83;;;14.70;99.90;;;;;;4985705;28;20177;-60
2022/07/06 05:33:11;;;;;;;6.67;5.00;;;14.80;99.90;;;;;;4984152;28;20197;-61
2022/07/06 05:35:37;;;;;;;7.60;4.87;;;14.90;99.90;;;;;;4985993;28;20260;-61
2022/07/06 05:38:02;;;;;;;7.33;4.47;;;14.90;99.90;;;;;;4989384;28;20252;-59
2022/07/06 05:40:28;;;;;;;8.13;4.87;;;15.00;99.90;;;;;;4988890;28;20167;-60
2022/07/06 05:42:54;;;;;;;10.60;4.97;;;15.10;99.90;;;;;;4986772;28;20232;-61
2022/07/06 05:45:19;;;;;;;7.67;4.90;;;15.20;99.90;;;;;;4987111;28;20671;-61
2022/07/06 05:50:29;;;;;;;12.17;5.70;;;15.40;99.90;;;;;;4984238;28;20187;-59
2022/07/06 05:53:00;;;;;;;8.27;5.10;;;15.40;99.90;;;;;;4980159;28;20456;-59
2022/07/06 05:55:27;;;;;;;9.37;5.83;;;15.40;99.90;;;;;;4988236;28;20187;-59
2022/07/06 05:57:55;;;;;;;14.07;6.43;;;15.40;99.90;;;;;;4986848;28;20460;-60
2022/07/06 06:00:22;;;;;;;16.97;6.97;;;15.30;99.90;;;;;;4985428;28;20971;-59
2022/07/06 06:02:48;;;;;;;21.40;6.43;;;15.40;99.90;;;;;;4976779;28;21026;-59
2022/07/06 06:05:14;;;;;;;21.47;7.27;;;15.50;99.90;;;;;;4989343;28;20437;-60
2022/07/06 06:07:40;;;;;;;17.47;7.03;;;15.60;99.90;;;;;;4983981;28;20911;-60
2022/07/06 06:10:09;;;;;;;21.20;7.40;;;15.70;99.90;;;;;;4982829;28;20603;-60
2022/07/06 06:12:35;;;;;;;14.00;5.73;;;15.80;99.60;;;;;;4984783;28;20427;-59
2022/07/06 06:15:00;;;;;;;15.40;6.23;;;15.90;98.60;;;;;;4988887;28;20439;-60
2022/07/06 06:17:26;;;;;;;14.53;5.90;;;16.00;97.80;;;;;;4983411;28;20180;-60
2022/07/06 06:19:52;;;;;;;14.60;6.93;;;16.20;97.30;;;;;;4993293;28;20188;-60
2022/07/06 06:22:18;;;;;;;9.40;6.23;;;16.30;97.00;;;;;;4995549;28;20220;-60
2022/07/06 06:24:44;;;;;;;11.27;6.20;;;16.50;97.00;;;;;;4990252;28;20201;-60
2022/07/06 06:27:09;;;;;;;20.37;6.73;;;16.60;96.80;;;;;;4987331;28;20177;-60
2022/07/06 06:29:35;;;;;;;14.67;5.80;;;16.80;96.50;;;;;;4992415;28;20181;-60
2022/07/06 06:32:01;;;;;;;11.87;5.10;;;16.90;96.40;;;;;;4988823;28;20654;-60
2022/07/06 06:34:26;;;;;;;13.03;5.20;;;17.00;96.60;;;;;;4989420;28;20192;-60
2022/07/06 06:36:52;;;;;;;15.60;6.27;;;17.00;94.70;;;;;;4987831;28;20220;-60
2022/07/06 06:39:18;;;;;;;15.07;6.67;;;17.00;95.50;;;;;;4989700;28;20181;-60
2022/07/06 06:41:43;;;;;;;19.53;6.43;;;17.00;96.70;;;;;;4992788;28;20289;-60
2022/07/06 06:44:09;;;;;;;24.47;6.40;;;17.10;96.70;;;;;;4989595;28;20253;-62
2022/07/06 06:46:34;;;;;;;15.90;6.63;;;17.20;96.40;;;;;;4985882;28;20173;-60
2022/07/06 06:49:00;;;;;;;15.43;6.67;;;17.20;96.30;;;;;;4993775;28;20177;-60
2022/07/06 06:51:26;;;;;;;14.40;6.33;;;17.30;96.00;;;;;;4991755;28;20182;-59
2022/07/06 06:53:51;;;;;;;9.20;4.53;;;17.40;95.20;;;;;;4991630;28;20240;-61
2022/07/06 06:56:17;;;;;;;14.90;5.30;;;17.40;94.60;;;;;;4984120;28;20181;-60
2022/07/06 06:58:43;;;;;;;6.40;4.10;;;17.60;93.90;;;;;;4989876;28;20216;-60
2022/07/06 07:01:12;;;;;;;7.87;4.10;;;17.70;93.70;;;;;;4992413;28;20205;-60
2022/07/06 07:03:37;;;;;;;6.70;3.80;;;17.80;91.90;;;;;;4989481;28;20444;-60
2022/07/06 07:06:03;;;;;;;4.67;4.10;;;17.90;91.10;;;;;;4990820;28;20435;-60
2022/07/06 07:08:29;;;;;;;14.43;4.30;;;18.10;90.10;;;;;;4981192;28;20213;-60
2022/07/06 07:10:54;;;;;;;11.33;4.53;;;18.20;86.30;;;;;;4989447;28;20613;-60
2022/07/06 07:13:20;;;;;;;4.33;3.93;;;18.30;85.20;;;;;;4984845;28;20251;-60
2022/07/06 07:15:45;;;;;;;8.93;4.47;;;18.40;79.60;;;;;;4987763;28;20703;-61
2022/07/06 07:18:11;;;;;;;5.87;3.73;;;18.50;78.00;;;;;;4991144;28;20169;-59
2022/07/06 07:20:37;;;;;;;7.37;3.97;;;18.60;72.90;;;;;;4993000;28;20165;-60
2022/07/06 07:23:02;;;;;;;5.57;3.90;;;18.70;67.70;;;;;;4993020;28;20743;-59
2022/07/06 07:25:28;;;;;;;7.80;3.60;;;18.70;68.80;;;;;;4987804;28;20670;-59
2022/07/06 07:27:54;;;;;;;6.90;3.80;;;18.70;70.20;;;;;;4985726;28;20647;-60
2022/07/06 07:30:20;;;;;;;8.73;3.63;;;18.70;67.30;;;;;;4989907;28;20173;-59
2022/07/06 07:32:46;;;;;;;6.30;3.63;;;18.60;65.70;;;;;;4985477;28;20223;-59
2022/07/06 07:35:12;;;;;;;8.63;4.00;;;18.60;68.20;;;;;;4982563;28;20460;-60
2022/07/06 07:37:38;;;;;;;4.90;3.73;;;18.60;70.20;;;;;;4989850;28;20170;-60
2022/07/06 07:40:05;;;;;;;5.60;4.30;;;18.70;72.00;;;;;;4989817;28;20185;-60
2022/07/06 07:42:31;;;;;;;6.10;3.53;;;18.90;66.20;;;;;;4987187;28;20973;-61
2022/07/06 07:44:57;;;;;;;6.83;3.77;;;18.90;64.80;;;;;;4985719;28;20433;-60
2022/07/06 07:47:22;;;;;;;7.10;3.63;;;19.10;67.00;;;;;;4983037;28;20467;-59
2022/07/06 07:49:48;;;;;;;7.70;3.57;;;19.20;69.60;;;;;;4984062;28;20208;-59
2022/07/06 07:52:14;;;;;;;5.57;3.67;;;19.40;68.30;;;;;;4980537;28;20316;-60
2022/07/06 07:54:40;;;;;;;7.70;4.00;;;19.60;65.20;;;;;;4984485;28;20197;-59
2022/07/06 07:57:05;;;;;;;10.50;3.30;;;19.70;66.40;;;;;;4983390;28;20212;-60
2022/07/06 07:59:31;;;;;;;8.03;3.77;;;19.90;67.70;;;;;;4989873;28;20271;-59
2022/07/06 08:01:56;;;;;;;9.00;3.73;;;20.00;66.50;;;;;;4987276;28;20277;-60
2022/07/06 08:04:22;;;;;;;7.80;3.33;;;20.10;63.60;;;;;;4981928;28;20283;-60
2022/07/06 08:06:48;;;;;;;16.13;3.90;;;20.00;62.80;;;;;;4989204;28;20670;-62
2022/07/06 08:09:15;;;;;;;8.30;3.80;;;20.00;63.20;;;;;;4984220;28;20173;-61
2022/07/06 08:11:41;;;;;;;11.53;3.57;;;19.90;64.10;;;;;;4983687;28;20189;-60
2022/07/06 08:14:06;;;;;;;8.87;3.90;;;19.90;65.50;;;;;;4981753;28;20455;-60
2022/07/06 08:16:32;;;;;;;8.93;3.87;;;20.00;65.50;;;;;;4985538;28;20662;-60
2022/07/06 08:18:58;;;;;;;5.43;3.53;;;20.20;63.40;;;;;;4982315;28;20189;-59
2022/07/06 08:21:24;;;;;;;5.80;3.67;;;20.30;61.40;;;;;;4987719;28;20205;-60
2022/07/06 08:23:50;;;;;;;4.40;3.80;;;20.40;58.90;;;;;;4988522;28;20272;-60
2022/07/06 08:26:15;;;;;;;6.87;3.30;;;20.50;59.50;;;;;;4983445;28;20543;-59
2022/07/06 08:28:41;;;;;;;8.43;4.20;;;20.50;60.90;;;;;;4987023;28;20189;-60
2022/07/06 08:31:07;;;;;;;4.10;3.20;;;20.60;59.80;;;;;;4984457;28;20751;-59
2022/07/06 08:33:32;;;;;;;6.60;3.70;;;20.60;58.60;;;;;;4979042;28;20205;-60
2022/07/06 08:35:58;;;;;;;11.73;4.27;;;20.60;58.10;;;;;;4995311;28;20173;-60
2022/07/06 08:38:27;;;;;;;5.70;4.30;;;20.50;56.50;;;;;;4987374;28;20218;-60
2022/07/06 08:40:57;;;;;;;4.60;4.00;;;20.60;57.90;;;;;;4981502;28;20512;-60
2022/07/06 08:43:23;;;;;;;3.43;3.17;;;20.60;58.30;;;;;;4981177;28;21029;-60
2022/07/06 08:45:54;;;;;;;5.13;3.53;;;20.80;57.70;;;;;;4985816;28;20428;-60
2022/07/06 08:48:23;;;;;;;5.40;3.83;;;20.90;56.70;;;;;;4987907;28;20184;-59
2022/07/06 08:50:53;;;;;;;4.53;3.40;;;20.80;55.20;;;;;;4983039;28;20424;-59
2022/07/06 08:53:20;;;;;;;13.60;3.70;;;20.90;56.30;;;;;;4984359;28;20501;-59
2022/07/06 08:55:47;;;;;;;5.83;3.60;;;21.00;57.40;;;;;;4980867;28;20478;-59
2022/07/06 08:58:16;;;;;;;5.10;3.47;;;21.20;57.90;;;;;;4977309;28;20424;-60
2022/07/06 09:00:44;;;;;;;4.60;3.53;;;21.30;57.20;;;;;;4978334;28;20448;-61
2022/07/06 09:03:12;;;;;;;7.17;3.80;;;21.50;57.20;;;;;;4981249;28;20460;-61
2022/07/06 09:05:40;;;;;;;3.63;3.33;;;21.70;56.30;;;;;;4984636;28;20439;-60
2022/07/06 09:08:05;;;;;;;7.53;3.30;;;21.80;56.90;;;;;;4985199;28;20459;-60
2022/07/06 09:10:31;;;;;;;4.70;3.60;;;22.00;56.40;;;;;;4979728;28;20428;-60
2022/07/06 09:13:05;;;;;;;6.53;3.67;;;22.10;56.10;;;;;;4984990;28;20621;-60
2022/07/06 09:15:31;;;;;;;8.17;3.70;;;22.10;55.50;;;;;;4981674;28;20193;-60
2022/07/06 09:18:00;;;;;;;5.57;3.73;;;22.20;55.80;;;;;;4982857;28;20487;-60
2022/07/06 09:20:26;;;;;;;4.70;3.10;;;22.40;56.00;;;;;;4982162;28;20516;-59
2022/07/06 09:22:59;;;;;;;4.63;3.50;;;22.50;55.20;;;;;;4978460;28;20559;-59
2022/07/06 09:25:26;;;;;;;5.63;3.47;;;22.40;54.60;;;;;;4976143;28;20677;-59
2022/07/06 09:27:54;;;;;;;5.03;3.70;;;22.20;54.00;;;;;;4985281;28;20980;-60
2022/07/06 09:30:21;;;;;;;4.73;3.50;;;22.10;54.70;;;;;;4982509;28;20424;-59
2022/07/06 09:32:50;;;;;;;6.37;3.80;;;22.00;54.10;;;;;;4978238;28;20458;-59
2022/07/06 09:35:28;;;;;;;4.03;3.40;;;22.00;53.60;;;;;;4986006;28;20785;-59
2022/07/06 09:38:05;;;;;;;6.27;3.60;;;21.80;53.80;;;;;;4979352;28;20428;-59
2022/07/06 09:40:36;;;;;;;4.40;3.60;;;21.70;54.80;;;;;;4984526;28;20425;-58
2022/07/06 09:43:18;;;;;;;12.27;3.00;;;21.60;54.90;;;;;;4979254;28;20499;-57
2022/07/06 09:45:50;;;;;;;3.40;3.00;;;21.60;53.40;;;;;;4981194;28;20455;-61
2022/07/06 09:48:18;;;;;;;10.47;3.57;;;21.70;52.50;;;;;;4985155;28;20428;-58
2022/07/06 09:50:50;;;;;;;4.27;3.30;;;21.80;52.70;;;;;;4981354;28;20447;-58
2022/07/06 09:53:17;;;;;;;3.80;3.33;;;21.90;51.40;;;;;;4983669;28;20444;-59
2022/07/06 09:55:51;;;;;;;5.33;3.17;;;21.80;50.90;;;;;;4983686;28;20518;-59
2022/07/06 09:58:17;;;;;;;2.93;2.63;;;21.60;51.10;;;;;;4982643;28;20436;-59
2022/07/06 10:00:44;;;;;;;5.50;3.40;;;21.40;53.20;;;;;;4986973;28;20436;-60
2022/07/06 10:03:11;;;;;;;4.43;2.97;;;21.50;54.60;;;;;;4982960;28;20464;-58
2022/07/06 10:05:42;;;;;;;3.23;2.50;;;21.80;54.70;;;;;;4987212;28;20498;-58
2022/07/06 10:08:09;;;;;;;4.53;3.07;;;22.10;53.50;;;;;;4979392;28;20428;-59
2022/07/06 10:10:39;;;;;;;4.00;2.50;;;22.40;52.30;;;;;;4985743;28;20955;-59
2022/07/06 10:13:06;;;;;;;4.47;3.03;;;22.60;51.20;;;;;;4983479;28;20557;-60
2022/07/06 10:15:33;;;;;;;4.47;2.60;;;22.60;50.30;;;;;;4980763;28;20550;-59
2022/07/06 10:18:00;;;;;;;6.23;3.13;;;22.60;49.80;;;;;;4984842;28;20901;-58
2022/07/06 10:20:29;;;;;;;4.30;3.00;;;22.80;48.90;;;;;;4986886;28;20494;-59
2022/07/06 10:22:57;;;;;;;5.20;2.70;;;23.00;49.60;;;;;;4983177;28;20526;-58
2022/07/06 10:25:24;;;;;;;3.30;3.00;;;23.30;50.40;;;;;;4980815;28;20445;-58
2022/07/06 10:27:51;;;;;;;3.50;3.03;;;23.60;49.70;;;;;;4979465;28;20424;-60
2022/07/06 10:30:16;;;;;;;6.03;3.40;;;23.80;49.90;;;;;;4984516;28;20433;-59
2022/07/06 10:32:45;;;;;;;7.80;2.60;;;23.90;48.50;;;;;;4986430;28;20490;-59
2022/07/06 10:35:11;;;;;;;3.57;2.67;;;24.00;48.00;;;;;;4984016;28;20181;-59
2022/07/06 10:37:37;;;;;;;4.30;2.63;;;23.80;46.50;;;;;;4987772;28;20779;-58
2022/07/06 10:42:51;;;;;;;5.47;2.80;;;23.70;47.00;;;;;;4976390;28;20224;-61
2022/07/06 10:45:37;;;;;;;4.67;2.80;;;23.80;47.00;;;;;;4982252;28;20432;-60
2022/07/06 10:48:12;;;;;;;4.73;2.50;;;24.00;48.10;;;;;;4948315;28;20424;-61
2022/07/06 10:50:46;;;;;;;3.70;3.20;;;24.10;49.00;;;;;;4975240;28;20404;-60
2022/07/06 10:53:26;;;;;;;4.50;2.87;;;24.30;48.30;;;;;;4986074;28;20634;-61
2022/07/06 10:55:53;;;;;;;3.90;2.93;;;24.20;45.70;;;;;;4983733;28;20559;-61
2022/07/06 10:58:34;;;;;;;2.90;2.70;;;24.10;46.50;;;;;;4985644;28;20439;-60
2022/07/06 11:01:00;;;;;;;3.80;2.50;;;24.10;46.90;;;;;;4987023;28;20424;-60
2022/07/06 11:03:47;;;;;;;5.93;2.90;;;24.10;46.10;;;;;;4985282;28;20953;-60
2022/07/06 11:06:14;;;;;;;3.83;2.97;;;24.20;45.50;;;;;;4989093;28;20435;-60
2022/07/06 11:08:53;;;;;;;3.83;2.90;;;24.30;45.50;;;;;;4987669;28;20448;-60
2022/07/06 11:11:45;;;;;;;3.40;2.90;;;24.40;45.50;;;;;;4991167;28;20428;-60
2022/07/06 11:14:15;;;;;;;3.33;3.00;;;24.60;46.80;;;;;;4987497;28;20453;-60
2022/07/06 11:16:47;;;;;;;15.40;3.00;;;24.70;47.50;;;;;;4986677;28;21164;-61
2022/07/06 11:19:18;;;;;;;3.73;3.40;;;24.80;45.80;;;;;;4980575;28;20425;-58
2022/07/06 11:22:04;;;;;;;3.47;3.03;;;24.90;45.80;;;;;;4987940;28;20487;-58
2022/07/06 11:24:32;;;;;;;6.40;3.03;;;25.00;46.40;;;;;;4981519;28;20483;-60
2022/07/06 11:26:59;;;;;;;3.70;2.50;;;25.20;46.40;;;;;;4985615;28;20804;-59
2022/07/06 11:29:26;;;;;;;6.00;2.97;;;25.30;45.90;;;;;;4989111;28;20450;-60
2022/07/06 11:31:55;;;;;;;3.37;2.70;;;25.40;48.00;;;;;;4989223;28;20451;-58
2022/07/06 11:34:27;;;;;;;5.20;3.00;;;25.60;47.30;;;;;;4976719;28;20468;-58
2022/07/06 11:36:58;;;;;;;6.50;3.50;;;25.60;45.20;;;;;;4977965;28;20502;-58
2022/07/06 11:39:34;;;;;;;2.87;2.47;;;25.60;44.40;;;;;;4980355;28;20503;-59
2022/07/06 11:42:03;;;;;;;2.90;2.70;;;25.60;45.90;;;;;;4987800;28;20462;-58
2022/07/06 11:44:30;;;;;;;3.50;2.90;;;25.70;45.90;;;;;;4974025;28;20456;-59
2022/07/06 11:46:57;;;;;;;7.87;3.40;;;25.90;46.30;;;;;;4986407;28;20444;-57
2022/07/06 11:49:23;;;;;;;7.03;3.00;;;26.00;46.30;;;;;;4985763;28;20968;-57
2022/07/06 11:51:48;;;;;;;4.67;2.53;;;26.10;47.00;;;;;;4993562;28;20526;-57
2022/07/06 11:54:19;;;;;;;5.07;2.30;;;26.20;47.30;;;;;;4992997;28;20196;-60
2022/07/06 11:57:00;;;;;;;4.00;2.60;;;26.50;48.10;;;;;;4983941;28;20213;-57
2022/07/06 11:59:27;;;;;;;3.10;2.60;;;26.60;43.90;;;;;;4990112;28;20460;-58
2022/07/06 12:01:58;;;;;;;2.57;2.37;;;26.60;42.30;;;;;;4986604;28;20471;-60
2022/07/06 12:04:24;;;;;;;2.93;2.50;;;26.50;41.70;;;;;;4986235;28;20435;-59
2022/07/06 12:06:50;;;;;;;5.00;2.90;;;26.60;42.50;;;;;;4987176;28;20472;-58
2022/07/06 12:09:16;;;;;;;4.97;3.00;;;26.70;43.30;;;;;;4992080;28;20494;-58
2022/07/06 12:11:46;;;;;;;6.13;2.37;;;26.70;43.70;;;;;;4989406;28;20188;-58
2022/07/06 12:14:21;;;;;;;7.30;3.13;;;26.50;44.80;;;;;;4990656;28;20212;-57
2022/07/06 12:16:48;;;;;;;3.13;2.80;;;26.50;44.30;;;;;;4984661;28;20442;-58
2022/07/06 12:19:14;;;;;;;5.40;2.87;;;26.50;43.70;;;;;;4987060;28;20463;-60
2022/07/06 12:21:51;;;;;;;6.43;2.83;;;26.40;42.80;;;;;;4990631;28;20471;-58
2022/07/06 12:24:25;;;;;;;7.60;2.80;;;26.50;43.10;;;;;;4991640;28;20450;-57
2022/07/06 12:26:52;;;;;;;5.07;2.67;;;26.60;42.80;;;;;;4981753;28;20956;-58
2022/07/06 12:29:19;;;;;;;3.10;2.60;;;26.80;43.20;;;;;;4987893;28;20544;-57
2022/07/06 12:31:53;;;;;;;3.30;3.00;;;26.90;43.10;;;;;;4990306;28;20450;-56
2022/07/06 12:34:26;;;;;;;2.60;2.40;;;27.00;42.70;;;;;;4990151;28;20574;-59
2022/07/06 12:36:59;;;;;;;12.53;3.37;;;27.20;44.70;;;;;;4985748;28;20430;-58
2022/07/06 12:39:27;;;;;;;5.93;2.37;;;27.40;43.70;;;;;;4988973;28;20507;-57
2022/07/06 12:41:54;;;;;;;5.33;2.50;;;27.60;43.00;;;;;;4982855;28;20831;-59
2022/07/06 12:44:24;;;;;;;2.47;2.10;;;27.80;43.80;;;;;;4983623;28;20522;-57
2022/07/06 12:47:06;;;;;;;3.77;2.93;;;27.90;44.50;;;;;;4985421;28;20643;-58
2022/07/06 12:49:33;;;;;;;6.10;2.43;;;28.00;43.20;;;;;;4983439;28;20430;-58
2022/07/06 12:52:08;;;;;;;3.10;2.33;;;27.90;41.30;;;;;;4982235;28;20195;-58